< < Back
Terminal Aerodrome Forecast


Current Version              Previous Versions:   1  2  3  4  5  6  7  8  9  

Terminal Aerodrome Forecast

867
FTUS44 KMOB 240500
TAFPNS
TAF
KPNS 240520Z 2406/2506 01005KT P6SM BKN150
     FM241700 35007KT P6SM SKC=



Latest METAR

332
SAUS70 KWBC 251100 RRB
MTRPNS
METAR KPNS 251053Z 35007KT 10SM CLR 12/07 A3006 RMK AO2 SLP181
T01220072


USA.gov is the U.S. government's official web portal to all federal, state and local government web resources and services.